createdAt,value
2022-11-01T00:01:36.814Z,100.00
2022-11-01T00:06:40.872Z,100.00
2022-11-01T00:11:45.047Z,100.00
2022-11-01T00:16:51.065Z,100.00
2022-11-01T00:21:55.098Z,100.00
2022-11-01T00:26:59.871Z,100.00
2022-11-01T00:32:05.368Z,100.00
2022-11-01T00:37:09.280Z,100.00
2022-11-01T00:42:13.175Z,100.00
2022-11-01T00:47:18.479Z,100.00
2022-11-01T00:52:22.461Z,100.00
2022-11-01T00:57:26.383Z,100.00
2022-11-01T01:02:31.822Z,100.00
2022-11-01T01:07:35.971Z,100.00
2022-11-01T01:12:39.931Z,100.00
2022-11-01T01:17:45.231Z,100.00
2022-11-01T01:22:49.349Z,100.00
2022-11-01T01:27:53.340Z,100.00
2022-11-01T01:32:58.816Z,100.00
2022-11-01T01:38:03.410Z,100.00
2022-11-01T01:43:10.442Z,100.00
2022-11-01T01:48:19.613Z,100.00
2022-11-01T01:53:29.089Z,100.00
2022-11-01T01:58:37.252Z,100.00
2022-11-01T02:03:44.068Z,100.00
2022-11-01T02:08:50.504Z,100.00
2022-11-01T02:13:54.760Z,100.00
2022-11-01T02:19:12.207Z,100.00
2022-11-01T02:24:33.558Z,100.00
2022-11-01T02:29:58.187Z,100.00
2022-11-01T02:35:12.545Z,100.00
2022-11-01T02:40:22.260Z,100.00
2022-11-01T02:45:33.944Z,100.00
2022-11-01T02:50:44.162Z,100.00
2022-11-01T02:55:48.252Z,100.00
2022-11-01T03:00:53.257Z,100.00
2022-11-01T03:06:20.317Z,100.00
2022-11-01T03:11:28.637Z,100.00
2022-11-01T03:16:36.794Z,100.00
2022-11-01T03:21:47.997Z,100.00
2022-11-01T03:27:04.094Z,100.00
2022-11-01T03:32:09.615Z,100.00
2022-11-01T03:37:16.613Z,100.00
2022-11-01T03:42:25.051Z,100.00
2022-11-01T03:47:30.186Z,100.00
2022-11-01T03:52:35.574Z,100.00
2022-11-01T03:57:39.620Z,100.00
2022-11-01T04:02:44.989Z,100.00
2022-11-01T04:07:51.628Z,100.00
2022-11-01T04:12:55.908Z,100.00
2022-11-01T04:18:22.164Z,100.00
2022-11-01T04:23:28.105Z,100.00
2022-11-01T04:28:32.908Z,100.00
2022-11-01T04:33:36.976Z,100.00
2022-11-01T04:38:42.341Z,100.00
2022-11-01T04:43:47.555Z,100.00
2022-11-01T04:48:51.547Z,100.00
2022-11-01T04:53:56.837Z,100.00
2022-11-01T04:59:00.801Z,100.00
2022-11-01T05:04:05.004Z,100.00
2022-11-01T05:09:10.336Z,100.00
2022-11-01T05:14:14.595Z,100.00
2022-11-01T05:19:18.616Z,100.00
2022-11-01T05:24:24.108Z,100.00
2022-11-01T05:29:32.958Z,100.00
2022-11-01T05:34:37.550Z,100.00
2022-11-01T05:39:43.313Z,100.00
2022-11-01T05:44:47.355Z,100.00
2022-11-01T05:49:51.408Z,100.00
2022-11-01T05:54:57.651Z,100.00
2022-11-01T06:00:02.780Z,100.00
2022-11-01T06:05:16.186Z,100.00
2022-11-01T06:10:22.002Z,100.00
2022-11-01T06:15:26.172Z,100.00
2022-11-01T06:20:32.095Z,100.00
2022-11-01T06:25:37.752Z,100.00
2022-11-01T06:30:44.004Z,100.00
2022-11-01T06:35:47.964Z,100.00
2022-11-01T06:40:53.314Z,100.00
2022-11-01T06:46:00.016Z,100.00
2022-11-01T06:51:04.423Z,100.00
2022-11-01T06:56:10.040Z,100.00
2022-11-01T07:01:14.058Z,100.00
2022-11-01T07:06:18.112Z,94.27
2022-11-01T07:11:27.429Z,93.75
2022-11-01T07:16:34.810Z,87.31
2022-11-01T07:21:38.944Z,86.12
2022-11-01T07:26:44.344Z,78.64
2022-11-01T07:31:48.349Z,74.27
2022-11-01T07:36:53.864Z,74.66
2022-11-01T07:41:59.623Z,74.05
2022-11-01T07:47:03.841Z,77.88
2022-11-01T07:52:07.769Z,72.16
2022-11-01T07:57:13.124Z,65.26
2022-11-01T08:02:17.260Z,61.52
2022-11-01T08:07:21.244Z,57.83
2022-11-01T08:12:26.674Z,57.17
2022-11-01T08:17:30.941Z,53.96
2022-11-01T08:22:35.202Z,54.97
2022-11-01T08:27:41.136Z,53.08
2022-11-01T08:32:46.577Z,53.70
2022-11-01T08:37:51.157Z,53.24
2022-11-01T08:42:56.652Z,49.79
2022-11-01T08:48:01.575Z,49.14
2022-11-01T08:53:06.792Z,48.57
2022-11-01T08:58:12.414Z,50.32
2022-11-01T09:03:16.478Z,47.31
2022-11-01T09:08:20.495Z,47.33
2022-11-01T09:13:27.917Z,45.38
2022-11-01T09:18:32.099Z,44.96
2022-11-01T09:23:36.636Z,45.80
2022-11-01T09:28:42.240Z,45.75
2022-11-01T09:33:46.148Z,44.12
2022-11-01T09:38:50.139Z,42.06
2022-11-01T09:43:57.660Z,43.07
2022-11-01T09:49:03.940Z,41.91
2022-11-01T09:54:08.553Z,40.77
2022-11-01T09:59:27.487Z,40.81
2022-11-01T10:04:56.752Z,40.02
2022-11-01T10:10:15.597Z,38.98
2022-11-01T10:15:41.868Z,39.00
2022-11-01T10:20:46.324Z,40.57
2022-11-01T10:25:54.850Z,38.70
2022-11-01T10:31:04.624Z,38.48
2022-11-01T10:36:15.209Z,38.79
2022-11-01T10:41:24.936Z,39.44
2022-11-01T10:46:35.048Z,37.74
2022-11-01T10:51:42.084Z,38.10
2022-11-01T10:56:49.425Z,35.75
2022-11-01T11:01:57.163Z,37.14
2022-11-01T11:07:01.295Z,37.98
2022-11-01T11:12:11.129Z,35.90
2022-11-01T11:17:22.657Z,35.64
2022-11-01T11:22:26.636Z,35.58
2022-11-01T11:27:34.575Z,33.92
2022-11-01T11:32:47.693Z,33.33
2022-11-01T11:37:55.323Z,33.12
2022-11-01T11:43:22.151Z,32.64
2022-11-01T11:48:27.516Z,32.08
2022-11-01T11:53:33.415Z,31.79
2022-11-01T11:58:40.154Z,30.66
2022-11-01T12:03:50.496Z,31.96
2022-11-01T12:08:56.341Z,32.10
2022-11-01T12:14:06.727Z,32.67
2022-11-01T12:19:26.331Z,32.50
2022-11-01T12:24:37.830Z,30.24
2022-11-01T12:29:47.489Z,30.07
2022-11-01T12:34:55.320Z,31.88
2022-11-01T12:40:03.807Z,30.81
2022-11-01T12:45:13.791Z,30.47
2022-11-01T12:50:22.178Z,27.81
2022-11-01T12:55:32.252Z,30.90
2022-11-01T13:00:49.069Z,28.93
2022-11-01T13:06:02.302Z,30.24
2022-11-01T13:11:17.836Z,30.81
2022-11-01T13:16:29.003Z,31.36
2022-11-01T13:21:44.925Z,32.73
2022-11-01T13:26:56.306Z,30.84
2022-11-01T13:32:06.161Z,31.03
2022-11-01T13:37:25.177Z,31.80
2022-11-01T13:42:32.529Z,31.60
2022-11-01T13:47:50.728Z,34.12
2022-11-01T13:53:00.364Z,31.73
2022-11-01T13:58:06.952Z,34.79
2022-11-01T14:03:27.751Z,33.30
2022-11-01T14:08:38.429Z,34.06
2022-11-01T14:13:45.761Z,34.91
2022-11-01T14:19:19.266Z,35.20
2022-11-01T14:24:34.555Z,35.56
2022-11-01T14:29:39.769Z,36.85
2022-11-01T14:34:45.917Z,37.52
2022-11-01T14:40:01.003Z,37.41
2022-11-01T14:45:17.981Z,38.83
2022-11-01T14:50:29.866Z,40.54
2022-11-01T14:55:37.380Z,41.38
2022-11-01T15:00:42.381Z,43.06
2022-11-01T15:05:49.392Z,43.91
2022-11-01T15:10:57.012Z,45.11
2022-11-01T15:16:08.819Z,47.90
2022-11-01T15:26:28.218Z,49.35
2022-11-01T15:31:34.387Z,51.16
2022-11-01T15:36:39.931Z,51.55
2022-11-01T15:41:45.868Z,52.05
2022-11-01T15:46:51.337Z,51.91
2022-11-01T15:51:58.524Z,51.50
2022-11-01T15:57:09.613Z,52.13
2022-11-01T16:02:20.950Z,52.44
2022-11-01T16:07:28.263Z,52.72
2022-11-01T16:12:38.570Z,52.56
2022-11-01T16:17:43.111Z,52.35
2022-11-01T16:22:48.666Z,54.84
2022-11-01T16:27:57.344Z,54.59
2022-11-01T16:33:09.435Z,55.92
2022-11-01T16:38:23.928Z,53.62
2022-11-01T16:43:32.534Z,56.81
2022-11-01T16:48:50.335Z,56.92
2022-11-01T16:53:55.205Z,58.11
2022-11-01T16:59:06.852Z,58.89
2022-11-01T17:04:13.949Z,58.89
2022-11-01T17:09:21.528Z,58.11
2022-11-01T17:14:27.258Z,57.91
2022-11-01T17:19:35.260Z,57.84
2022-11-01T17:24:39.359Z,57.57
2022-11-01T17:29:45.168Z,57.75
2022-11-01T17:34:49.392Z,57.63
2022-11-01T17:39:53.527Z,56.52
2022-11-01T17:44:58.931Z,55.52
2022-11-01T17:50:03.036Z,55.40
2022-11-01T17:55:09.684Z,56.04
2022-11-01T18:00:16.918Z,55.55
2022-11-01T18:05:20.947Z,54.60
2022-11-01T18:10:37.446Z,54.50
2022-11-01T18:15:48.827Z,54.32
2022-11-01T18:21:03.962Z,54.38
2022-11-01T18:26:13.243Z,55.09
2022-11-01T18:31:23.723Z,56.25
2022-11-01T18:36:33.980Z,56.39
2022-11-01T18:41:37.908Z,56.40
2022-11-01T18:46:48.503Z,57.84
2022-11-01T18:51:52.562Z,61.14
2022-11-01T18:56:58.704Z,62.28
2022-11-01T19:02:13.740Z,64.96
2022-11-01T19:07:20.304Z,67.26
2022-11-01T19:12:29.813Z,67.31
2022-11-01T19:17:39.542Z,66.82
2022-11-01T19:22:44.593Z,68.30
2022-11-01T19:27:49.396Z,71.05
2022-11-01T19:32:56.129Z,70.25
2022-11-01T19:38:00.872Z,66.37
2022-11-01T19:43:13.749Z,66.96
2022-11-01T19:48:23.548Z,67.73
2022-11-01T19:53:30.877Z,68.44
2022-11-01T19:58:45.456Z,69.05
2022-11-01T20:03:55.510Z,72.88
2022-11-01T20:09:03.454Z,72.56
2022-11-01T20:14:07.689Z,71.55
2022-11-01T20:19:16.530Z,76.51
2022-11-01T20:24:21.798Z,78.29
2022-11-01T20:29:25.820Z,79.90
2022-11-01T20:34:31.670Z,77.59
2022-11-01T20:39:35.704Z,76.87
2022-11-01T20:44:39.651Z,78.30
2022-11-01T20:49:45.063Z,79.41
2022-11-01T20:54:49.107Z,77.63
2022-11-01T20:59:53.071Z,83.06
2022-11-01T21:05:02.549Z,89.80
2022-11-01T21:10:30.926Z,89.51
2022-11-01T21:15:37.436Z,91.29
2022-11-01T21:20:45.858Z,90.35
2022-11-01T21:25:50.941Z,91.90
2022-11-01T21:30:54.897Z,94.07
2022-11-01T21:36:00.332Z,91.70
2022-11-01T21:41:22.578Z,94.93
2022-11-01T21:46:33.802Z,94.33
2022-11-01T21:51:39.125Z,95.82
2022-11-01T21:56:43.008Z,98.62
2022-11-01T22:01:48.716Z,100.00
2022-11-01T22:06:54.354Z,100.00
2022-11-01T22:11:59.001Z,100.00
2022-11-01T22:17:03.148Z,100.00
2022-11-01T22:22:08.503Z,100.00
2022-11-01T22:27:12.436Z,100.00
2022-11-01T22:32:16.497Z,100.00
2022-11-01T22:37:21.836Z,100.00
2022-11-01T22:42:27.496Z,100.00
2022-11-01T22:47:31.698Z,100.00
2022-11-01T22:52:39.574Z,100.00
2022-11-01T22:57:46.997Z,100.00
2022-11-01T23:02:51.050Z,100.00
2022-11-01T23:07:58.171Z,100.00
2022-11-01T23:13:26.137Z,100.00
2022-11-01T23:18:34.258Z,100.00
2022-11-01T23:23:44.733Z,100.00
2022-11-01T23:28:51.083Z,100.00
2022-11-01T23:33:55.215Z,100.00
2022-11-01T23:39:03.585Z,100.00
2022-11-01T23:44:17.215Z,100.00
2022-11-01T23:49:24.271Z,100.00
2022-11-01T23:54:37.101Z,100.00
2022-11-01T23:59:41.090Z,100.00
